createdAt,value
2022-09-15T07:46:32.332Z,452.00
2022-09-15T07:47:32.329Z,528.00
2022-09-15T07:48:32.251Z,624.00
2022-09-15T07:49:32.478Z,688.00
2022-09-15T07:50:32.228Z,728.00
2022-09-15T07:51:32.208Z,796.00
2022-09-15T07:52:32.197Z,896.00
2022-09-15T07:53:32.190Z,936.00
2022-09-15T07:54:32.166Z,960.00
2022-09-15T07:55:32.155Z,1040.00
2022-09-15T07:56:32.141Z,1108.00
2022-09-15T07:57:32.125Z,1140.00
2022-09-15T07:58:32.113Z,1208.00
2022-09-15T07:59:32.099Z,1080.00
2022-09-15T08:00:32.159Z,1148.00
2022-09-15T08:01:32.172Z,1236.00
2022-09-15T08:02:32.086Z,1244.00
2022-09-15T08:03:32.043Z,1236.00
2022-09-15T08:04:32.028Z,1308.00
2022-09-15T08:05:35.951Z,1408.00
2022-09-15T08:06:32.734Z,1372.00
2022-09-15T08:07:31.985Z,1188.00
2022-09-15T08:08:32.003Z,1316.00
2022-09-15T08:09:31.956Z,1276.00
2022-09-15T08:10:31.945Z,1200.00
2022-09-15T08:11:31.938Z,1224.00
2022-09-15T08:12:31.926Z,1136.00
2022-09-15T08:13:31.931Z,964.00
2022-09-15T08:14:31.911Z,1012.00
2022-09-15T08:15:31.879Z,992.00
2022-09-15T08:16:31.905Z,996.00
2022-09-15T08:17:31.857Z,1228.00
2022-09-15T08:18:31.849Z,1092.00
2022-09-15T08:19:31.823Z,1116.00
2022-09-15T08:20:31.821Z,1116.00
2022-09-15T08:21:31.792Z,1152.00
2022-09-15T08:22:31.782Z,1100.00
2022-09-15T08:23:31.769Z,972.00
2022-09-15T08:24:31.782Z,884.00
2022-09-15T08:25:31.771Z,964.00
2022-09-15T08:26:31.732Z,924.00
2022-09-15T08:27:31.737Z,832.00
2022-09-15T08:28:31.702Z,852.00
2022-09-15T08:29:31.686Z,848.00
2022-09-15T08:30:31.699Z,852.00
2022-09-15T08:31:31.693Z,900.00
2022-09-15T08:32:31.646Z,908.00
2022-09-15T08:33:31.633Z,880.00
2022-09-15T08:34:31.622Z,940.00
2022-09-15T08:35:31.632Z,976.00
2022-09-15T08:36:31.592Z,1088.00
2022-09-15T08:37:31.576Z,1036.00
2022-09-15T08:38:31.565Z,1048.00
2022-09-15T08:39:31.592Z,1128.00
2022-09-15T08:40:31.635Z,1164.00
2022-09-15T08:41:31.532Z,1168.00
2022-09-15T08:42:31.514Z,1212.00
2022-09-15T08:43:31.528Z,1308.00
2022-09-15T08:44:31.491Z,1288.00
2022-09-15T08:45:31.469Z,1324.00
2022-09-15T08:46:31.541Z,1304.00
2022-09-15T08:47:31.455Z,1268.00
2022-09-15T08:48:31.428Z,1260.00
2022-09-15T08:49:50.546Z,1232.00
2022-09-15T08:50:31.492Z,1256.00
2022-09-15T08:51:31.388Z,1260.00
2022-09-15T08:52:31.374Z,1268.00
2022-09-15T08:53:31.365Z,1400.00
2022-09-15T08:54:31.355Z,1448.00
2022-09-15T08:55:31.363Z,1452.00
2022-09-15T08:56:31.332Z,1516.00
2022-09-15T08:57:31.312Z,1420.00
2022-09-15T08:58:31.297Z,1436.00
2022-09-15T08:59:31.286Z,1968.00
2022-09-15T09:00:31.337Z,2004.00
2022-09-15T09:01:31.339Z,1640.00
2022-09-15T09:02:31.291Z,2088.00
2022-09-15T09:03:31.267Z,4120.00
2022-09-15T09:04:31.222Z,2356.00
2022-09-15T09:05:31.225Z,1648.00
2022-09-15T09:06:31.195Z,2164.00
2022-09-15T09:07:31.187Z,2520.00
2022-09-15T09:08:31.176Z,2056.00
2022-09-15T09:09:31.156Z,1456.00
2022-09-15T09:10:31.141Z,1564.00
2022-09-15T09:11:31.178Z,1464.00
2022-09-15T09:12:31.111Z,2056.00
2022-09-15T09:13:35.437Z,1816.00
2022-09-15T09:14:31.084Z,1320.00
2022-09-15T09:15:31.123Z,924.00
2022-09-15T09:16:31.115Z,1092.00
2022-09-15T09:17:31.050Z,1356.00
2022-09-15T09:18:31.034Z,1508.00
2022-09-15T09:19:32.316Z,1544.00
2022-09-15T09:20:31.010Z,1480.00
2022-09-15T09:21:31.015Z,1844.00
2022-09-15T09:22:31.018Z,1748.00
2022-09-15T09:23:30.972Z,1568.00
2022-09-15T09:24:30.967Z,1256.00
2022-09-15T09:25:30.947Z,1276.00
2022-09-15T09:26:30.959Z,988.00
2022-09-15T09:27:30.923Z,820.00
2022-09-15T09:28:30.917Z,824.00
2022-09-15T09:29:30.893Z,804.00
2022-09-15T09:30:30.888Z,888.00
2022-09-15T09:31:30.977Z,892.00
2022-09-15T09:32:30.852Z,1004.00
2022-09-15T09:33:30.842Z,976.00
2022-09-15T09:34:30.829Z,1044.00
2022-09-15T09:35:30.815Z,800.00
2022-09-15T09:36:30.870Z,648.00
2022-09-15T09:37:30.793Z,600.00
2022-09-15T09:38:30.781Z,620.00
2022-09-15T09:39:30.770Z,596.00
2022-09-15T09:40:30.827Z,520.00
2022-09-15T09:41:30.737Z,492.00
2022-09-15T09:42:30.760Z,572.00
2022-09-15T09:43:30.857Z,596.00
2022-09-15T09:44:30.699Z,560.00
2022-09-15T09:45:30.686Z,620.00
2022-09-15T09:46:30.703Z,652.00
2022-09-15T09:47:30.687Z,800.00
2022-09-15T09:48:30.647Z,704.00
2022-09-15T09:49:30.635Z,872.00
2022-09-15T09:50:30.620Z,856.00
2022-09-15T09:51:30.610Z,996.00
2022-09-15T09:52:30.592Z,1020.00
2022-09-15T09:53:30.607Z,1284.00
2022-09-15T09:54:30.566Z,1288.00
2022-09-15T09:55:30.554Z,1156.00
2022-09-15T09:56:30.537Z,1092.00
2022-09-15T09:57:30.530Z,1112.00
2022-09-15T09:58:30.513Z,1032.00
2022-09-15T09:59:30.507Z,1152.00
2022-09-15T10:00:30.485Z,1196.00
2022-09-15T10:01:30.497Z,1252.00
2022-09-15T10:02:30.460Z,1364.00
2022-09-15T10:03:32.948Z,1676.00
2022-09-15T10:04:30.462Z,1468.00
2022-09-15T10:05:30.422Z,1320.00
2022-09-15T10:06:30.403Z,1376.00
2022-09-15T10:07:30.425Z,1428.00
2022-09-15T10:08:30.377Z,1352.00
2022-09-15T10:09:33.390Z,1436.00
2022-09-15T10:10:30.358Z,1540.00
2022-09-15T10:11:30.344Z,1572.00
2022-09-15T10:12:30.363Z,1408.00
2022-09-15T10:13:30.317Z,1464.00
2022-09-15T10:14:30.317Z,1464.00
2022-09-15T10:15:30.320Z,1580.00
2022-09-15T10:16:30.337Z,1588.00
2022-09-15T10:17:30.266Z,1304.00
2022-09-15T10:18:30.256Z,1372.00
2022-09-15T10:19:30.247Z,1772.00
2022-09-15T10:20:30.230Z,1772.00
2022-09-15T10:21:30.216Z,1476.00
2022-09-15T10:22:30.201Z,1236.00
2022-09-15T10:23:30.196Z,1388.00
2022-09-15T10:24:30.174Z,1464.00
2022-09-15T10:25:49.306Z,1472.00
2022-09-15T10:26:30.147Z,1264.00
2022-09-15T10:27:30.199Z,1116.00
2022-09-15T10:28:30.122Z,1312.00
2022-09-15T10:29:30.110Z,1536.00
2022-09-15T10:30:30.098Z,1360.00
2022-09-15T10:31:30.224Z,1308.00
2022-09-15T10:32:30.073Z,1080.00
2022-09-15T10:33:30.064Z,1016.00
2022-09-15T10:34:30.049Z,1056.00
2022-09-15T10:35:30.050Z,1248.00
2022-09-15T10:36:30.024Z,1076.00
2022-09-15T10:37:30.009Z,1200.00
2022-09-15T10:38:29.999Z,1224.00
2022-09-15T10:39:29.993Z,1272.00
2022-09-15T10:40:30.087Z,1284.00
2022-09-15T10:41:29.960Z,1248.00
2022-09-15T10:42:29.957Z,848.00
2022-09-15T10:43:29.934Z,828.00
2022-09-15T10:44:29.917Z,844.00
2022-09-15T10:45:30.009Z,720.00
2022-09-15T10:46:29.897Z,640.00
2022-09-15T10:47:29.885Z,568.00
2022-09-15T10:48:29.875Z,696.00
2022-09-15T10:49:29.858Z,708.00
2022-09-15T10:50:29.859Z,620.00
2022-09-15T10:51:29.857Z,640.00
2022-09-15T10:52:29.824Z,584.00
2022-09-15T10:53:29.855Z,748.00
2022-09-15T10:54:29.789Z,776.00
2022-09-15T10:55:51.140Z,936.00
2022-09-15T10:56:29.810Z,988.00
2022-09-15T10:57:29.762Z,1020.00
2022-09-15T10:58:29.737Z,1108.00
2022-09-15T10:59:29.728Z,1012.00
2022-09-15T11:00:29.715Z,992.00
2022-09-15T11:01:29.730Z,836.00
2022-09-15T11:02:29.775Z,956.00
2022-09-15T11:03:29.674Z,1064.00
2022-09-15T11:04:29.665Z,1160.00
2022-09-15T11:05:29.651Z,984.00
2022-09-15T11:06:29.637Z,1136.00
2022-09-15T11:07:29.662Z,1020.00
2022-09-15T11:08:29.612Z,992.00
2022-09-15T11:09:29.597Z,1260.00
2022-09-15T11:10:29.589Z,1456.00
2022-09-15T11:11:29.582Z,1416.00
2022-09-15T11:12:29.673Z,1276.00
2022-09-15T11:13:29.611Z,1552.00
2022-09-15T11:14:29.532Z,1392.00
2022-09-15T11:15:29.524Z,1412.00
2022-09-15T11:16:29.578Z,1496.00
2022-09-15T11:17:29.497Z,1800.00
2022-09-15T11:18:29.483Z,1640.00
2022-09-15T11:19:29.472Z,1484.00
2022-09-15T11:20:29.460Z,1444.00
2022-09-15T11:21:29.453Z,1384.00
2022-09-15T11:22:29.452Z,1764.00
2022-09-15T11:23:29.454Z,1504.00
2022-09-15T11:24:29.412Z,1276.00
2022-09-15T11:25:29.441Z,1304.00
2022-09-15T11:26:29.384Z,1280.00
2022-09-15T11:27:29.378Z,1412.00
2022-09-15T11:28:29.358Z,1232.00
2022-09-15T11:29:29.347Z,1456.00
2022-09-15T11:30:29.380Z,1440.00
2022-09-15T11:31:29.416Z,1480.00
2022-09-15T11:32:29.314Z,1868.00
2022-09-15T11:33:29.302Z,1644.00
2022-09-15T11:34:29.310Z,1488.00
2022-09-15T11:35:29.273Z,1692.00
2022-09-15T11:36:29.259Z,1620.00
2022-09-15T11:37:29.248Z,1984.00
2022-09-15T11:38:29.267Z,1768.00
2022-09-15T11:39:29.251Z,1716.00
2022-09-15T11:40:29.350Z,1912.00
2022-09-15T11:41:29.201Z,1408.00
2022-09-15T11:42:29.230Z,1820.00
2022-09-15T11:43:29.185Z,1344.00
2022-09-15T11:44:29.168Z,1444.00
2022-09-15T11:45:29.156Z,1336.00
2022-09-15T11:46:29.232Z,1160.00
2022-09-15T11:47:29.161Z,1708.00
2022-09-15T11:48:29.114Z,1644.00
2022-09-15T11:49:29.109Z,1492.00
2022-09-15T11:50:29.091Z,1292.00
2022-09-15T11:51:29.094Z,1044.00
2022-09-15T11:52:29.113Z,880.00
2022-09-15T11:53:29.058Z,712.00
2022-09-15T11:54:31.328Z,784.00
2022-09-15T11:55:29.031Z,616.00
2022-09-15T11:56:29.014Z,420.00
2022-09-15T11:57:29.005Z,480.00
2022-09-15T11:58:28.992Z,468.00
2022-09-15T11:59:28.975Z,444.00
2022-09-15T12:00:28.973Z,520.00
2022-09-15T12:01:28.980Z,544.00
2022-09-15T12:02:29.076Z,692.00
2022-09-15T12:03:28.967Z,684.00
2022-09-15T12:04:28.916Z,824.00
2022-09-15T12:05:28.919Z,868.00
2022-09-15T12:06:28.890Z,932.00
2022-09-15T12:07:28.895Z,964.00
2022-09-15T12:08:28.897Z,1020.00
2022-09-15T12:09:28.862Z,1096.00
2022-09-15T12:10:28.844Z,1132.00
2022-09-15T12:11:28.846Z,1276.00
2022-09-15T12:12:30.709Z,1524.00
2022-09-15T12:13:28.843Z,2152.00
2022-09-15T12:14:28.951Z,1700.00
2022-09-15T12:15:28.782Z,1528.00
2022-09-15T12:16:28.766Z,1592.00
2022-09-15T12:17:28.767Z,1592.00
2022-09-15T12:18:39.212Z,1288.00
2022-09-15T12:19:28.740Z,1560.00
2022-09-15T12:20:28.743Z,1872.00
2022-09-15T12:21:28.731Z,1716.00
2022-09-15T12:22:28.698Z,1860.00
2022-09-15T12:23:28.683Z,1408.00
2022-09-15T12:24:28.681Z,1488.00
2022-09-15T12:25:28.685Z,1236.00
2022-09-15T12:26:28.648Z,1044.00
2022-09-15T12:27:28.639Z,788.00
2022-09-15T12:28:28.657Z,592.00
2022-09-15T12:29:28.607Z,516.00
2022-09-15T12:30:28.660Z,484.00
2022-09-15T12:31:28.628Z,396.00
2022-09-15T12:32:28.571Z,244.00
2022-09-15T12:33:28.593Z,184.00
2022-09-15T12:34:28.566Z,152.00
2022-09-15T12:35:28.565Z,136.00
2022-09-15T12:36:28.525Z,132.00
2022-09-15T12:37:28.555Z,140.00
2022-09-15T12:38:28.500Z,132.00
2022-09-15T12:39:28.489Z,144.00
2022-09-15T12:40:28.644Z,140.00
2022-09-15T12:41:28.460Z,140.00
2022-09-15T12:42:28.452Z,156.00
2022-09-15T12:43:28.442Z,168.00
2022-09-15T12:44:28.422Z,164.00
2022-09-15T12:45:28.446Z,160.00
2022-09-15T12:46:28.477Z,144.00
2022-09-15T12:47:28.455Z,148.00
2022-09-15T12:48:28.539Z,160.00
2022-09-15T12:49:28.370Z,172.00
2022-09-15T12:50:28.353Z,180.00
2022-09-15T12:51:28.342Z,180.00
2022-09-15T12:52:28.384Z,172.00
2022-09-15T12:53:28.373Z,156.00
2022-09-15T12:54:28.314Z,156.00
2022-09-15T12:55:28.296Z,152.00
2022-09-15T12:56:28.279Z,172.00
2022-09-15T12:57:28.274Z,180.00
2022-09-15T12:58:28.276Z,184.00
2022-09-15T12:59:28.242Z,200.00
2022-09-15T13:00:28.241Z,184.00
2022-09-15T13:01:28.260Z,176.00
2022-09-15T13:02:28.350Z,176.00
2022-09-15T13:03:28.302Z,176.00
2022-09-15T13:04:28.185Z,164.00
2022-09-15T13:05:28.175Z,144.00
2022-09-15T13:06:28.160Z,140.00
2022-09-15T13:07:28.144Z,140.00
2022-09-15T13:08:28.195Z,132.00
2022-09-15T13:09:28.131Z,136.00
2022-09-15T13:10:28.106Z,132.00
2022-09-15T13:11:28.094Z,144.00
2022-09-15T13:12:28.087Z,164.00
2022-09-15T13:13:29.996Z,168.00
2022-09-15T13:14:28.061Z,168.00
2022-09-15T13:15:28.072Z,160.00
2022-09-15T13:16:28.035Z,172.00
2022-09-15T13:17:28.017Z,180.00
2022-09-15T13:18:28.022Z,216.00
2022-09-15T13:19:28.018Z,260.00
2022-09-15T13:20:27.983Z,268.00
2022-09-15T13:21:27.994Z,288.00
2022-09-15T13:22:27.955Z,352.00
2022-09-15T13:23:27.946Z,412.00
2022-09-15T13:24:27.961Z,416.00
2022-09-15T13:25:27.923Z,440.00
2022-09-15T13:26:27.906Z,408.00
2022-09-15T13:27:27.909Z,388.00
2022-09-15T13:28:27.932Z,380.00
2022-09-15T13:29:27.918Z,344.00
2022-09-15T13:30:27.865Z,400.00
2022-09-15T13:31:27.875Z,392.00
2022-09-15T13:32:27.835Z,432.00
2022-09-15T13:35:01.225Z,488.00
2022-09-15T13:35:27.846Z,532.00
2022-09-15T13:38:01.942Z,532.00
2022-09-15T13:38:31.689Z,640.00
2022-09-15T13:39:27.768Z,752.00
2022-09-15T13:40:27.793Z,780.00
2022-09-15T13:41:27.751Z,768.00
2022-09-15T13:42:27.736Z,772.00
2022-09-15T13:43:27.690Z,788.00
2022-09-15T13:44:27.880Z,680.00
2022-09-15T13:45:27.669Z,648.00
2022-09-15T13:46:27.751Z,660.00
2022-09-15T13:47:27.641Z,636.00
2022-09-15T13:48:27.647Z,576.00
2022-09-15T13:49:27.615Z,608.00
2022-09-15T13:50:27.625Z,560.00
2022-09-15T13:51:27.654Z,564.00
2022-09-15T13:52:27.615Z,564.00
2022-09-15T13:53:27.578Z,576.00
2022-09-15T13:54:27.572Z,604.00
2022-09-15T13:55:27.543Z,616.00
2022-09-15T13:56:27.544Z,624.00
2022-09-15T13:59:01.629Z,732.00
2022-09-15T13:59:27.858Z,840.00
2022-09-15T14:00:27.479Z,784.00
2022-09-15T14:01:28.203Z,808.00
2022-09-15T14:02:29.179Z,784.00
2022-09-15T14:03:27.481Z,720.00
2022-09-15T14:04:27.443Z,688.00
2022-09-15T14:05:27.419Z,556.00
2022-09-15T14:06:27.409Z,472.00
2022-09-15T14:07:27.477Z,404.00
2022-09-15T14:08:27.385Z,432.00
2022-09-15T14:09:27.369Z,416.00
2022-09-15T14:10:27.360Z,400.00
2022-09-15T14:11:27.348Z,400.00
2022-09-15T14:12:27.417Z,440.00
2022-09-15T14:13:27.331Z,452.00
2022-09-15T14:14:27.315Z,532.00
2022-09-15T14:15:27.299Z,480.00
2022-09-15T14:16:27.328Z,436.00
2022-09-15T14:17:27.275Z,432.00
2022-09-15T14:18:27.291Z,404.00
2022-09-15T14:19:27.250Z,352.00
2022-09-15T14:20:27.235Z,292.00
2022-09-15T14:21:27.221Z,264.00
2022-09-15T14:22:27.221Z,256.00
2022-09-15T14:23:27.376Z,200.00
2022-09-15T14:24:27.196Z,180.00
2022-09-15T14:25:27.207Z,152.00
2022-09-15T14:26:27.165Z,124.00
2022-09-15T14:27:27.147Z,116.00
2022-09-15T14:28:31.303Z,112.00
2022-09-15T14:29:27.172Z,104.00
2022-09-15T14:30:27.118Z,92.00
2022-09-15T14:31:27.155Z,92.00
2022-09-15T14:32:27.085Z,100.00
2022-09-15T14:33:27.076Z,104.00
2022-09-15T14:34:27.062Z,108.00
2022-09-15T14:35:27.083Z,124.00
2022-09-15T14:36:27.035Z,132.00
2022-09-15T14:37:27.075Z,120.00
2022-09-15T14:38:27.069Z,120.00
2022-09-15T14:39:27.001Z,120.00
2022-09-15T14:40:27.076Z,92.00
2022-09-15T14:41:27.001Z,80.00
2022-09-15T14:42:26.977Z,88.00
2022-09-15T14:43:26.948Z,104.00
2022-09-15T14:46:26.947Z,120.00
2022-09-15T14:47:26.898Z,116.00
2022-09-15T14:48:26.901Z,108.00
2022-09-15T14:49:26.873Z,108.00
2022-09-15T14:50:30.363Z,132.00
2022-09-15T14:51:26.873Z,132.00
2022-09-15T14:52:26.847Z,140.00
2022-09-15T14:53:26.832Z,156.00
2022-09-15T14:54:26.830Z,164.00
2022-09-15T14:55:26.799Z,176.00
2022-09-15T14:56:26.823Z,196.00
2022-09-15T14:57:30.881Z,228.00
2022-09-15T14:58:26.764Z,260.00
2022-09-15T14:59:26.769Z,304.00
2022-09-15T15:00:26.769Z,1172.00
2022-09-15T15:01:26.818Z,380.00
2022-09-15T15:02:26.819Z,420.00
2022-09-15T15:03:26.699Z,388.00
2022-09-15T15:04:26.688Z,400.00
2022-09-15T15:05:26.671Z,508.00
2022-09-15T15:06:30.038Z,432.00
2022-09-15T15:07:26.663Z,452.00
2022-09-15T15:08:26.638Z,460.00
2022-09-15T15:09:26.632Z,500.00
2022-09-15T15:10:26.615Z,540.00
2022-09-15T15:11:26.599Z,676.00
2022-09-15T15:12:26.613Z,692.00
2022-09-15T15:13:26.569Z,696.00
2022-09-15T15:14:26.563Z,752.00
2022-09-15T15:15:26.563Z,932.00
2022-09-15T15:16:26.606Z,1876.00
2022-09-15T15:17:26.538Z,6424.00
2022-09-15T15:18:30.983Z,2768.00
2022-09-15T15:19:26.525Z,4876.00
2022-09-15T15:20:26.493Z,4260.00
2022-09-15T15:21:26.482Z,3856.00
2022-09-15T15:22:26.467Z,1456.00
2022-09-15T15:23:26.449Z,1328.00
2022-09-15T15:24:26.446Z,4192.00
2022-09-15T15:25:26.421Z,1708.00
2022-09-15T15:26:26.411Z,3396.00
2022-09-15T15:27:26.442Z,1052.00
2022-09-15T15:28:26.388Z,920.00
2022-09-15T15:29:26.427Z,808.00
2022-09-15T15:30:26.368Z,652.00
2022-09-15T15:31:26.531Z,496.00
2022-09-15T15:32:26.341Z,420.00
2022-09-15T15:33:26.351Z,444.00
2022-09-15T15:34:26.315Z,452.00
2022-09-15T15:35:26.383Z,388.00
2022-09-15T15:36:26.292Z,348.00
2022-09-15T15:37:26.278Z,352.00
2022-09-15T15:38:26.267Z,332.00
2022-09-15T15:39:26.254Z,324.00
2022-09-15T15:40:26.330Z,308.00
2022-09-15T15:41:26.237Z,316.00
2022-09-15T15:42:26.257Z,316.00
2022-09-15T15:43:26.217Z,312.00
2022-09-15T15:44:26.209Z,300.00
2022-09-15T15:45:26.253Z,308.00
2022-09-15T15:46:26.181Z,324.00
2022-09-15T15:47:26.191Z,308.00
2022-09-15T15:48:26.145Z,312.00
2022-09-15T15:49:26.168Z,344.00
2022-09-15T15:50:26.129Z,316.00
2022-09-15T15:51:26.107Z,336.00
2022-09-15T15:52:26.102Z,308.00
2022-09-15T15:53:26.141Z,324.00
2022-09-15T15:54:26.080Z,332.00
2022-09-15T15:55:26.059Z,324.00
2022-09-15T15:56:26.050Z,304.00
2022-09-15T15:57:26.058Z,292.00
2022-09-15T15:58:26.027Z,272.00
2022-09-15T15:59:26.082Z,252.00
2022-09-15T16:00:25.998Z,248.00
2022-09-15T16:01:26.026Z,256.00
2022-09-15T16:02:26.128Z,284.00
2022-09-15T16:03:25.972Z,308.00
2022-09-15T16:04:25.946Z,344.00
2022-09-15T16:05:25.955Z,388.00
2022-09-15T16:06:25.923Z,400.00
2022-09-15T16:07:27.916Z,456.00
2022-09-15T16:08:25.902Z,516.00
2022-09-15T16:09:25.883Z,516.00
2022-09-15T16:10:25.875Z,484.00
2022-09-15T16:11:25.858Z,500.00
2022-09-15T16:12:25.871Z,520.00
2022-09-15T16:13:25.833Z,492.00
2022-09-15T16:14:25.853Z,592.00
2022-09-15T16:15:25.805Z,652.00
2022-09-15T16:16:25.929Z,864.00
2022-09-15T16:17:25.780Z,824.00
2022-09-15T16:18:25.779Z,796.00
2022-09-15T16:19:25.757Z,932.00
2022-09-15T16:20:25.774Z,716.00
2022-09-15T16:21:25.734Z,588.00
2022-09-15T16:22:25.718Z,564.00
2022-09-15T16:23:25.729Z,680.00
2022-09-15T16:24:25.694Z,808.00
2022-09-15T16:25:25.703Z,584.00
2022-09-15T16:26:25.673Z,724.00
2022-09-15T16:27:25.652Z,768.00
2022-09-15T16:28:25.667Z,664.00
2022-09-15T16:29:25.631Z,576.00
2022-09-15T16:30:25.617Z,696.00
2022-09-15T16:31:25.635Z,448.00
2022-09-15T16:32:25.602Z,456.00
2022-09-15T16:33:25.576Z,336.00
2022-09-15T16:34:25.570Z,340.00
2022-09-15T16:35:25.580Z,288.00
2022-09-15T16:36:25.543Z,264.00
2022-09-15T16:37:25.521Z,272.00
2022-09-15T16:38:25.533Z,244.00
2022-09-15T16:39:25.507Z,264.00
2022-09-15T16:40:25.606Z,264.00
2022-09-15T16:41:25.474Z,248.00
2022-09-15T16:42:25.646Z,228.00
2022-09-15T16:43:25.443Z,180.00
2022-09-15T16:44:25.435Z,156.00
2022-09-15T16:45:25.417Z,140.00
2022-09-15T16:46:25.461Z,128.00
2022-09-15T16:47:25.411Z,116.00
2022-09-15T16:48:25.410Z,120.00
2022-09-15T16:49:25.366Z,120.00
2022-09-15T16:50:25.373Z,124.00
2022-09-15T16:51:29.969Z,144.00
2022-09-15T16:52:25.331Z,144.00
2022-09-15T16:53:25.316Z,164.00
2022-09-15T16:54:25.307Z,172.00
2022-09-15T16:55:25.347Z,172.00
2022-09-15T16:56:25.318Z,176.00
2022-09-15T16:57:25.261Z,188.00
2022-09-15T16:58:25.260Z,208.00
2022-09-15T16:59:25.239Z,216.00
2022-09-15T17:00:25.272Z,208.00
2022-09-15T17:01:25.236Z,200.00
2022-09-15T17:02:25.247Z,216.00
2022-09-15T17:03:25.207Z,212.00
2022-09-15T17:04:25.170Z,196.00
2022-09-15T17:05:25.156Z,184.00
2022-09-15T17:06:25.172Z,156.00
2022-09-15T17:07:25.130Z,140.00
2022-09-15T17:08:25.146Z,128.00
2022-09-15T17:09:25.101Z,120.00
2022-09-15T17:10:25.093Z,112.00
2022-09-15T17:11:25.143Z,112.00
2022-09-15T17:12:25.069Z,100.00
2022-09-15T17:13:27.768Z,96.00
2022-09-15T17:14:25.039Z,92.00
2022-09-15T17:15:25.022Z,92.00
2022-09-15T17:16:25.035Z,92.00
2022-09-15T17:17:25.046Z,88.00
2022-09-15T17:18:24.983Z,80.00
2022-09-15T17:19:25.025Z,72.00
2022-09-15T17:20:24.954Z,60.00
2022-09-15T17:21:24.944Z,52.00
2022-09-15T17:22:24.926Z,44.00
2022-09-15T17:23:24.945Z,40.00
2022-09-15T17:24:24.902Z,36.00
2022-09-15T17:25:24.886Z,32.00
2022-09-15T17:26:30.558Z,28.00
2022-09-15T17:27:24.890Z,24.00
2022-09-15T17:28:24.965Z,24.00
2022-09-15T17:29:24.834Z,24.00
2022-09-15T17:30:24.839Z,20.00
2022-09-15T17:31:24.943Z,16.00
2022-09-15T17:32:24.825Z,20.00
2022-09-15T17:33:24.867Z,20.00
2022-09-15T17:34:24.791Z,16.00
2022-09-15T17:35:24.769Z,12.00
2022-09-15T17:36:24.817Z,12.00
2022-09-15T17:37:24.726Z,12.00
2022-09-15T17:38:24.709Z,12.00
2022-09-15T17:39:24.723Z,8.00
2022-09-15T17:40:24.745Z,8.00
2022-09-15T17:41:24.671Z,8.00
2022-09-15T17:42:24.658Z,8.00
2022-09-15T17:43:24.986Z,8.00
2022-09-15T17:44:24.653Z,8.00
2022-09-15T17:45:24.616Z,8.00
2022-09-15T17:46:24.647Z,4.00
2022-09-15T17:47:24.614Z,8.00
2022-09-15T17:48:24.591Z,4.00
2022-09-15T17:49:24.561Z,4.00
2022-09-15T17:50:24.626Z,8.00
2022-09-15T17:51:24.532Z,4.00
2022-09-15T17:52:24.544Z,4.00
2022-09-15T17:53:24.505Z,4.00
2022-09-15T17:54:24.510Z,4.00
2022-09-15T17:55:24.488Z,4.00
2022-09-15T17:56:24.463Z,4.00
2022-09-15T17:57:24.508Z,0.00
2022-09-15T17:58:24.436Z,4.00
